Time;durP1;ratioP1;P1;durP2;ratioP2;P2;SDS_P1;SDS_P2;PMS_P1;PMS_P2;Temp;Humidity;BMP_temperature;BMP_pressure;BME280_temperature;BME280_humidity;BME280_pressure;Samples;Min_cycle;Max_cycle;Signal;HPM_P1;HPM_P2
2022/01/20 00:01:43;;;;;;;17.25;2.20;;;;;;;;;;5070976;28;20033;-68
2022/01/20 00:04:20;;;;;;;15.38;2.70;;;;;;;;;;5069842;28;20399;-68
2022/01/20 00:07:25;;;;;;;19.25;2.63;;;;;;;;;;5070036;28;20052;-67
2022/01/20 00:23:17;;;;;;;10.65;2.00;;;;;;;;;;5060723;28;20209;-68
2022/01/20 00:28:21;;;;;;;15.70;2.20;;;;;;;;;;5049797;28;20407;-68
2022/01/20 00:31:14;;;;;;;10.68;2.35;;;4.60;99.90;;;;;;5068196;28;20119;-67
2022/01/20 00:33:45;;;;;;;12.50;2.40;;;4.80;99.90;;;;;;5068752;28;20054;-68
2022/01/20 00:38:41;;;;;;;10.68;2.10;;;;;;;;;;5069719;28;20135;-68
2022/01/20 00:41:12;;;;;;;12.30;2.20;;;;;;;;;;5068887;28;20040;-68
2022/01/20 00:43:37;;;;;;;12.88;2.38;;;4.90;99.90;;;;;;5069662;28;20497;-67
2022/01/20 00:46:03;;;;;;;9.20;2.15;;;;;;;;;;5071502;28;20044;-68
2022/01/20 00:48:29;;;;;;;8.02;1.73;;;;;;;;;;5072938;28;20040;-67
2022/01/20 00:50:55;;;;;;;6.53;1.23;;;;;;;;;;5072575;28;20039;-68
2022/01/20 00:53:21;;;;;;;5.07;1.40;;;;;;;;;;5072905;28;20041;-67
2022/01/20 00:55:47;;;;;;;10.45;1.60;;;5.20;99.90;;;;;;5072698;28;20086;-67
2022/01/20 00:58:13;;;;;;;12.10;3.17;;;;;;;;;;5072896;28;20037;-67
2022/01/20 01:00:39;;;;;;;9.95;1.48;;;;;;;;;;5072431;28;20040;-68
2022/01/20 01:03:05;;;;;;;6.65;1.23;;;;;;;;;;5056025;28;20037;-68
2022/01/20 01:05:33;;;;;;;18.67;3.63;;;;;;;;;;5074068;28;20047;-68
2022/01/20 01:07:59;;;;;;;13.02;1.35;;;;;;;;;;5073022;28;20059;-67
2022/01/20 01:10:27;;;;;;;6.32;1.25;;;;;;;;;;5071987;28;20131;-67
2022/01/20 01:12:59;;;;;;;9.10;2.17;;;;;;;;;;5057780;28;20118;-68
2022/01/20 01:15:30;;;;;;;9.55;2.75;;;;;;;;;;5052818;28;20415;-68
2022/01/20 01:23:36;;;;;;;11.98;1.60;;;;;;;;;;5006517;28;20056;-68
2022/01/20 01:26:07;;;;;;;9.55;1.63;;;;;;;;;;5052407;28;20068;-67
2022/01/20 01:28:33;;;;;;;11.48;1.98;;;;;;;;;;5052496;28;20037;-67
2022/01/20 01:33:53;;;;;;;14.10;2.38;;;5.10;99.90;;;;;;5052161;28;20055;-67
2022/01/20 01:36:22;;;;;;;17.20;2.13;;;5.10;99.90;;;;;;5035669;28;20171;-67
2022/01/20 01:38:48;;;;;;;11.68;2.03;;;5.10;99.90;;;;;;5052159;28;20075;-67
2022/01/20 01:41:16;;;;;;;14.13;2.28;;;;;;;;;;5051771;28;20079;-68
2022/01/20 01:43:45;;;;;;;15.90;2.03;;;;;;;;;;5051876;28;20040;-67
2022/01/20 01:46:12;;;;;;;19.70;2.08;;;;;;;;;;5052128;28;20417;-68
2022/01/20 01:48:40;;;;;;;15.13;2.25;;;;;;;;;;5052128;28;20044;-67
2022/01/20 01:51:06;;;;;;;8.93;3.08;;;;;;;;;;5051646;28;20116;-67
2022/01/20 01:53:32;;;;;;;9.60;2.63;;;;;;;;;;5051926;28;20137;-68
2022/01/20 01:55:58;;;;;;;15.40;1.55;;;;;;;;;;5053376;28;20478;-67
2022/01/20 01:58:24;;;;;;;9.65;1.65;;;;;;;;;;5034549;28;20080;-68
2022/01/20 02:00:50;;;;;;;16.60;3.33;;;;;;;;;;5052844;28;20048;-67
2022/01/20 02:03:16;;;;;;;12.23;2.03;;;;;;;;;;5051857;28;20044;-67
2022/01/20 02:06:40;;;;;;;12.18;2.88;;;5.10;99.90;;;;;;5051554;28;20041;-68
2022/01/20 02:09:09;;;;;;;26.10;3.30;;;;;;;;;;5041069;28;20111;-67
2022/01/20 02:19:32;;;;;;;10.75;2.38;;;;;;;;;;5070984;28;20093;-68
2022/01/20 02:22:02;;;;;;;18.38;3.30;;;5.00;99.90;;;;;;5072410;28;20040;-67
2022/01/20 02:24:29;;;;;;;11.30;1.92;;;;;;;;;;5071431;28;20053;-67
2022/01/20 02:26:55;;;;;;;16.05;2.05;;;4.80;99.90;;;;;;5071159;28;20048;-67
2022/01/20 02:29:21;;;;;;;16.30;2.53;;;4.60;99.90;;;;;;5063501;28;20439;-67
2022/01/20 02:31:46;;;;;;;7.85;1.70;;;4.70;99.90;;;;;;5051067;28;20039;-67
2022/01/20 02:34:14;;;;;;;6.50;2.05;;;4.70;99.90;;;;;;5052561;28;20063;-67
2022/01/20 02:36:44;;;;;;;16.25;2.15;;;;;;;;;;5051137;28;20099;-67
2022/01/20 02:39:31;;;;;;;17.08;2.30;;;;;;;;;;5050592;28;20477;-67
2022/01/20 02:47:35;;;;;;;17.02;2.65;;;;;;;;;;5029548;28;20094;-67
2022/01/20 02:50:01;;;;;;;12.38;2.55;;;;;;;;;;5051735;28;20112;-68
2022/01/20 02:52:28;;;;;;;17.90;3.58;;;;;;;;;;5050888;28;20466;-67
2022/01/20 02:54:54;;;;;;;24.48;4.28;;;;;;;;;;5050996;28;20067;-67
2022/01/20 02:57:20;;;;;;;25.50;3.13;;;4.70;99.90;;;;;;5050621;28;20048;-68
2022/01/20 02:59:47;;;;;;;24.45;4.40;;;;;;;;;;5050604;28;20056;-68
2022/01/20 03:02:13;;;;;;;34.42;4.40;;;;;;;;;;5051968;28;20044;-67
2022/01/20 03:04:39;;;;;;;23.98;4.40;;;;;;;;;;5051844;28;20053;-67
2022/01/20 03:07:05;;;;;;;21.70;3.97;;;4.80;99.90;;;;;;5050272;28;20045;-67
2022/01/20 03:09:31;;;;;;;23.08;4.63;;;;;;;;;;5049782;28;20068;-67
2022/01/20 03:11:58;;;;;;;28.10;4.68;;;;;;;;;;5050258;28;20123;-67
2022/01/20 03:14:24;;;;;;;27.58;4.28;;;;;;;;;;5051844;28;20049;-68
2022/01/20 03:16:50;;;;;;;22.20;4.45;;;;;;;;;;5050473;28;20132;-68
2022/01/20 03:19:16;;;;;;;28.60;4.55;;;;;;;;;;5051336;28;20503;-67
2022/01/20 03:21:43;;;;;;;19.08;5.22;;;;;;;;;;5049872;28;20037;-68
2022/01/20 03:24:09;;;;;;;37.15;5.95;;;;;;;;;;5050276;28;20095;-68
2022/01/20 03:26:36;;;;;;;24.17;4.75;;;;;;;;;;5050049;28;20075;-67
2022/01/20 03:29:03;;;;;;;20.65;3.45;;;;;;;;;;5054514;28;20043;-67
2022/01/20 03:31:30;;;;;;;28.25;5.03;;;4.60;99.90;;;;;;5070181;28;20123;-67
2022/01/20 03:33:56;;;;;;;15.70;3.55;;;;;;;;;;5069974;28;20056;-68
2022/01/20 03:36:22;;;;;;;22.40;4.07;;;;;;;;;;5053520;28;20044;-67
2022/01/20 03:38:48;;;;;;;25.40;3.80;;;;;;;;;;5070064;28;20568;-68
2022/01/20 03:41:14;;;;;;;22.98;4.07;;;;;;;;;;5071266;28;20040;-68
2022/01/20 03:43:40;;;;;;;31.98;6.05;;;;;;;;;;5069974;28;20127;-69
2022/01/20 03:46:12;;;;;;;13.98;2.72;;;;;;;;;;5070026;28;20427;-67
2022/01/20 03:48:48;;;;;;;16.83;3.25;;;;;;;;;;5071119;28;20094;-67
2022/01/20 03:51:14;;;;;;;24.45;4.43;;;;;;;;;;5053234;28;20397;-67
2022/01/20 03:53:40;;;;;;;16.30;2.92;;;;;;;;;;5069894;28;20097;-67
2022/01/20 03:56:07;;;;;;;25.25;4.32;;;;;;;;;;5053186;28;20413;-67
2022/01/20 03:58:32;;;;;;;10.40;2.72;;;;;;;;;;5069887;28;20040;-68
2022/01/20 04:00:58;;;;;;;12.68;3.30;;;;;;;;;;5052645;28;20464;-67
2022/01/20 04:03:25;;;;;;;16.30;2.95;;;;;;;;;;5069522;28;20068;-68
2022/01/20 04:05:56;;;;;;;14.98;2.50;;;4.50;99.90;;;;;;5053063;28;20094;-67
2022/01/20 04:08:27;;;;;;;12.55;2.28;;;;;;;;;;5069964;28;20045;-68
2022/01/20 04:10:52;;;;;;;11.85;2.22;;;;;;;;;;5069404;28;20040;-67
2022/01/20 04:13:19;;;;;;;10.32;2.08;;;4.20;99.90;;;;;;5051675;28;20041;-68
2022/01/20 04:15:48;;;;;;;11.25;2.40;;;;;;;;;;5049738;28;20446;-67
2022/01/20 04:18:19;;;;;;;21.77;2.88;;;5.60;99.90;;;;;;5049807;28;20051;-68
2022/01/20 04:20:45;;;;;;;20.40;3.97;;;;;;;;;;5051456;28;20125;-68
2022/01/20 04:23:11;;;;;;;13.30;3.80;;;4.50;99.90;;;;;;5053675;28;20127;-68
2022/01/20 04:25:37;;;;;;;12.23;2.42;;;;;;;;;;5053465;28;20052;-68
2022/01/20 04:28:03;;;;;;;15.70;3.28;;;;;;;;;;5053366;28;20613;-68
2022/01/20 04:30:29;;;;;;;10.07;2.22;;;;;;;;;;5069467;28;20074;-67
2022/01/20 04:32:55;;;;;;;13.52;3.13;;;;;;;;;;5073569;28;20040;-67
2022/01/20 04:35:22;;;;;;;14.48;2.60;;;;;;;;;;5073557;28;20050;-68
2022/01/20 04:37:48;;;;;;;21.15;4.78;;;;;;;;;;5073451;28;20040;-67
2022/01/20 04:40:15;;;;;;;19.65;3.30;;;3.90;99.90;;;;;;5072916;28;20052;-68
2022/01/20 04:42:44;;;;;;;18.55;3.00;;;;;;;;;;5073083;28;20048;-67
2022/01/20 04:45:13;;;;;;;20.52;2.92;;;;;;;;;;5056474;28;20048;-67
2022/01/20 04:58:21;;;;;;;;;;;3.70;99.90;;;;;;5073317;28;20075;-68
2022/01/20 05:00:47;;;;;;;12.85;2.40;;;;;;;;;;5072404;28;20373;-68
2022/01/20 05:03:13;;;;;;;6.97;1.63;;;;;;;;;;5074188;28;20247;-67
2022/01/20 05:05:39;;;;;;;18.80;2.47;;;;;;;;;;5072411;28;20048;-68
2022/01/20 05:08:05;;;;;;;21.58;2.28;;;;;;;;;;5074222;28;20055;-67
2022/01/20 05:10:33;;;;;;;16.35;2.72;;;;;;;;;;5093931;22;20054;-74
2022/01/20 05:13:07;;;;;;;15.18;3.33;;;;;;;;;;5055966;28;20047;-74
2022/01/20 05:15:35;;;;;;;12.48;2.33;;;;;;;;;;5072676;28;20059;-74
2022/01/20 05:18:01;;;;;;;15.18;2.47;;;3.60;99.90;;;;;;5072878;28;20082;-74
2022/01/20 05:20:27;;;;;;;13.55;2.22;;;;;;;;;;5055576;28;20533;-74
2022/01/20 05:22:53;;;;;;;12.38;3.05;;;3.60;99.90;;;;;;5072663;28;20079;-74
2022/01/20 05:25:18;;;;;;;14.52;3.67;;;;;;;;;;5072621;28;20051;-74
2022/01/20 05:27:44;;;;;;;17.63;4.03;;;;;;;;;;5072542;28;20123;-74
2022/01/20 05:30:12;;;;;;;23.15;4.90;;;3.60;99.90;;;;;;5041571;28;20037;-74
2022/01/20 05:32:38;;;;;;;13.50;3.47;;;;;;;;;;5036103;28;20473;-74
2022/01/20 05:35:04;;;;;;;18.88;4.35;;;3.70;99.90;;;;;;5036081;28;20110;-75
2022/01/20 05:37:30;;;;;;;25.92;3.30;;;3.80;99.90;;;;;;5052686;28;20442;-74
2022/01/20 05:39:56;;;;;;;25.23;3.67;;;;;;;;;;5052249;28;20139;-74
2022/01/20 05:42:22;;;;;;;24.60;4.22;;;;;;;;;;5052221;28;20494;-74
2022/01/20 05:44:50;;;;;;;22.02;3.05;;;;;;;;;;5052278;28;20414;-74
2022/01/20 05:47:25;;;;;;;18.17;3.33;;;;;;;;;;5035912;28;20037;-74
2022/01/20 05:49:50;;;;;;;15.38;2.95;;;3.70;99.90;;;;;;5035273;28;20037;-74
2022/01/20 05:52:19;;;;;;;11.77;2.42;;;;;;;;;;5052245;28;20035;-74
2022/01/20 05:54:44;;;;;;;9.25;2.42;;;;;;;;;;5052317;28;20041;-74
2022/01/20 05:57:11;;;;;;;15.23;2.65;;;;;;;;;;5035679;28;20037;-74
2022/01/20 05:59:37;;;;;;;14.60;3.00;;;;;;;;;;5051600;28;20060;-74
2022/01/20 06:02:11;;;;;;;12.38;2.70;;;;;;;;;;5052024;28;20414;-74
2022/01/20 06:04:37;;;;;;;11.30;2.72;;;3.50;99.90;;;;;;5052152;28;20048;-75
2022/01/20 06:07:03;;;;;;;17.83;3.50;;;;;;;;;;5052136;28;20037;-74
2022/01/20 06:09:29;;;;;;;19.27;4.05;;;;;;;;;;5051521;28;20137;-74
2022/01/20 06:11:54;;;;;;;17.73;3.33;;;3.50;99.90;;;;;;5058205;28;20119;-74
2022/01/20 06:14:20;;;;;;;17.35;3.17;;;;;;;;;;5072250;28;20044;-74
2022/01/20 06:16:46;;;;;;;17.33;3.08;;;3.30;99.90;;;;;;5071588;28;20044;-74
2022/01/20 06:19:12;;;;;;;11.90;1.98;;;;;;;;;;5054721;28;20048;-75
2022/01/20 06:21:41;;;;;;;8.90;2.88;;;;;;;;;;5071429;28;20043;-75
2022/01/20 06:24:07;;;;;;;16.38;3.45;;;3.50;99.90;;;;;;5071757;28;20052;-75
2022/01/20 06:26:33;;;;;;;17.23;2.60;;;;;;;;;;5048830;28;20594;-75
2022/01/20 06:28:58;;;;;;;12.02;2.22;;;;;;;;;;5046977;28;20091;-75
2022/01/20 06:31:24;;;;;;;19.63;3.03;;;;;;;;;;5031212;28;20064;-75
2022/01/20 06:33:50;;;;;;;11.55;2.10;;;;;;;;;;5015100;28;20044;-75
2022/01/20 06:36:16;;;;;;;22.75;4.35;;;;;;;;;;5031574;28;20038;-75
2022/01/20 06:38:42;;;;;;;13.95;2.13;;;3.60;99.90;;;;;;5014905;28;20068;-75
2022/01/20 06:41:08;;;;;;;20.88;2.95;;;;;;;;;;5031275;28;20182;-76
2022/01/20 06:43:34;;;;;;;19.20;3.13;;;;;;;;;;5030717;28;20488;-76
2022/01/20 06:46:00;;;;;;;18.42;2.28;;;;;;;;;;5031472;28;20156;-76
2022/01/20 06:48:28;;;;;;;24.05;4.05;;;3.70;99.90;;;;;;5016529;28;20071;-76
2022/01/20 06:50:54;;;;;;;13.43;2.50;;;;;;;;;;5032116;28;20049;-76
2022/01/20 06:53:20;;;;;;;13.82;2.92;;;;;;;;;;5034733;28;20041;-76
2022/01/20 06:55:46;;;;;;;16.33;2.33;;;;;;;;;;5039320;28;20183;-76
2022/01/20 06:58:12;;;;;;;17.52;4.07;;;;;;;;;;5047638;28;20048;-75
2022/01/20 07:00:38;;;;;;;11.35;3.08;;;;;;;;;;5047335;28;20052;-76
2022/01/20 07:03:04;;;;;;;14.45;2.63;;;;;;;;;;5047872;28;20041;-75
2022/01/20 07:05:30;;;;;;;13.93;2.50;;;;;;;;;;5030963;28;20049;-76
2022/01/20 07:07:56;;;;;;;11.20;2.13;;;;;;;;;;5047775;28;20041;-76
2022/01/20 07:10:22;;;;;;;13.30;1.80;;;;;;;;;;5030477;28;20041;-76
2022/01/20 07:12:48;;;;;;;7.43;1.50;;;;;;;;;;5061221;28;20063;-76
2022/01/20 07:15:16;;;;;;;10.40;1.92;;;;;;;;;;5050614;28;20045;-76
2022/01/20 07:17:42;;;;;;;11.63;2.15;;;;;;;;;;5067492;28;20041;-75
2022/01/20 07:20:09;;;;;;;11.57;1.88;;;;;;;;;;5039845;28;20171;-75
2022/01/20 07:22:35;;;;;;;16.23;2.92;;;;;;;;;;5030882;28;20041;-75
2022/01/20 07:25:01;;;;;;;8.02;2.00;;;;;;;;;;5029821;28;20044;-76
2022/01/20 07:27:28;;;;;;;8.73;2.20;;;;;;;;;;5028549;28;20084;-75
2022/01/20 07:29:54;;;;;;;13.95;2.53;;;;;;;;;;5039548;28;20139;-76
2022/01/20 07:32:20;;;;;;;11.55;2.03;;;;;;;;;;5039128;28;20446;-75
2022/01/20 07:34:46;;;;;;;19.25;2.80;;;;;;;;;;5047500;28;20041;-74
2022/01/20 07:37:11;;;;;;;14.75;2.60;;;3.50;99.90;;;;;;5048572;28;20037;-75
2022/01/20 07:39:37;;;;;;;12.30;3.10;;;;;;;;;;5038869;28;20117;-75
2022/01/20 07:42:04;;;;;;;16.27;2.92;;;3.60;99.90;;;;;;5048040;28;20048;-75
2022/01/20 07:44:30;;;;;;;21.73;3.63;;;;;;;;;;5033214;28;20134;-74
2022/01/20 07:46:56;;;;;;;9.05;2.38;;;;;;;;;;5031813;28;20049;-74
2022/01/20 07:49:22;;;;;;;20.98;3.28;;;;;;;;;;5029363;28;20048;-74
2022/01/20 07:51:48;;;;;;;15.20;2.55;;;;;;;;;;5013178;28;20495;-74
2022/01/20 07:54:14;;;;;;;16.48;3.15;;;;;;;;;;5030070;28;20124;-74
2022/01/20 07:56:40;;;;;;;23.73;3.53;;;;;;;;;;5042421;28;20514;-74
2022/01/20 07:59:06;;;;;;;13.18;2.42;;;;;;;;;;5053192;28;20091;-74
2022/01/20 08:01:32;;;;;;;15.85;3.88;;;;;;;;;;5052454;28;20045;-75
2022/01/20 08:03:58;;;;;;;19.08;3.90;;;;;;;;;;5053030;28;20045;-74
2022/01/20 08:06:24;;;;;;;15.80;4.13;;;;;;;;;;5048931;28;20177;-74
2022/01/20 08:08:50;;;;;;;19.92;3.13;;;;;;;;;;5039964;28;20045;-74
2022/01/20 08:11:17;;;;;;;15.55;3.45;;;3.80;99.90;;;;;;5050477;28;20040;-75
2022/01/20 08:13:43;;;;;;;13.40;3.05;;;;;;;;;;5070049;28;20036;-75
2022/01/20 08:16:09;;;;;;;16.38;2.78;;;;;;;;;;5070395;28;20049;-75
2022/01/20 08:18:35;;;;;;;22.80;3.50;;;;;;;;;;5064105;28;20487;-75
2022/01/20 08:21:01;;;;;;;11.93;3.05;;;;;;;;;;5030146;28;20412;-75
2022/01/20 08:23:27;;;;;;;26.38;4.45;;;;;;;;;;5030468;28;20042;-75
2022/01/20 08:25:53;;;;;;;16.33;3.92;;;;;;;;;;5030423;28;20542;-75
2022/01/20 08:28:22;;;;;;;21.10;4.00;;;;;;;;;;5014017;28;20226;-75
2022/01/20 08:30:48;;;;;;;21.52;5.22;;;;;;;;;;5033757;28;20041;-75
2022/01/20 08:33:14;;;;;;;14.30;3.05;;;;;;;;;;5043075;28;20049;-75
2022/01/20 08:35:40;;;;;;;17.67;3.13;;;;;;;;;;5033403;28;20038;-75
2022/01/20 08:38:07;;;;;;;18.15;4.15;;;;;;;;;;5033378;28;20067;-75
2022/01/20 08:40:36;;;;;;;13.15;2.92;;;3.80;99.90;;;;;;5033754;28;20038;-75
2022/01/20 08:43:03;;;;;;;20.48;2.70;;;;;;;;;;5033559;28;20052;-75
2022/01/20 08:45:30;;;;;;;15.05;3.10;;;;;;;;;;5033196;28;20048;-72
2022/01/20 08:47:57;;;;;;;26.73;3.70;;;3.70;99.90;;;;;;5033388;28;20047;-75
2022/01/20 08:50:25;;;;;;;13.90;2.80;;;3.80;99.90;;;;;;5033417;28;20092;-75
2022/01/20 08:52:51;;;;;;;14.40;2.67;;;;;;;;;;5033526;28;20045;-76
2022/01/20 08:55:17;;;;;;;13.15;2.60;;;;;;;;;;5033279;28;20419;-76
2022/01/20 08:57:44;;;;;;;20.77;3.25;;;;;;;;;;5050598;28;20040;-76
2022/01/20 09:00:10;;;;;;;15.60;2.85;;;4.20;99.90;;;;;;5052665;28;20384;-76
2022/01/20 09:02:36;;;;;;;14.95;3.67;;;;;;;;;;5052755;28;20040;-76
2022/01/20 09:05:04;;;;;;;17.20;2.38;;;4.20;99.90;;;;;;5052773;28;20153;-76
2022/01/20 09:07:30;;;;;;;13.73;2.58;;;;;;;;;;5052029;28;20037;-75
2022/01/20 09:09:56;;;;;;;15.75;2.55;;;;;;;;;;5053108;28;20054;-76
2022/01/20 09:17:42;;;;;;;21.30;2.60;;;;;;;;;;5052209;28;20394;-76
2022/01/20 09:20:08;;;;;;;17.40;2.15;;;4.60;99.90;;;;;;5053049;28;20041;-76
2022/01/20 09:22:34;;;;;;;10.85;2.17;;;;;;;;;;5037231;28;20557;-76
2022/01/20 09:25:00;;;;;;;13.93;2.80;;;4.70;99.90;;;;;;5057858;28;20037;-76
2022/01/20 09:27:26;;;;;;;11.93;2.90;;;;;;;;;;5020381;28;20033;-76
2022/01/20 09:29:52;;;;;;;9.18;2.65;;;;;;;;;;5043403;28;20041;-76
2022/01/20 09:32:19;;;;;;;11.75;2.42;;;;;;;;;;5035659;28;20048;-76
2022/01/20 09:34:45;;;;;;;11.15;2.40;;;4.80;99.90;;;;;;5052795;28;20049;-76
2022/01/20 09:37:12;;;;;;;15.52;2.55;;;4.80;99.90;;;;;;5036322;28;20033;-76
2022/01/20 09:39:39;;;;;;;10.30;3.40;;;;;;;;;;5035585;28;20365;-76
2022/01/20 09:42:06;;;;;;;13.10;2.78;;;5.00;99.90;;;;;;5051926;28;20070;-76
2022/01/20 09:44:32;;;;;;;15.75;3.20;;;4.80;99.90;;;;;;5052551;28;20037;-75
2022/01/20 09:46:57;;;;;;;13.40;2.10;;;5.10;99.90;;;;;;5035831;28;20041;-76
2022/01/20 09:49:23;;;;;;;16.85;2.72;;;;;;;;;;5052035;28;20098;-76
2022/01/20 09:51:49;;;;;;;12.90;3.70;;;;;;;;;;5052094;28;20047;-76
2022/01/20 09:54:15;;;;;;;20.95;4.20;;;;;;;;;;5052451;28;20049;-76
2022/01/20 09:56:44;;;;;;;15.70;3.25;;;;;;;;;;5052177;28;20060;-76
2022/01/20 09:59:10;;;;;;;17.80;3.65;;;;;;;;;;5051414;28;20052;-76
2022/01/20 10:01:40;;;;;;;13.23;2.65;;;4.80;99.90;;;;;;5050181;28;20041;-73
2022/01/20 10:04:17;;;;;;;11.35;2.70;;;;;;;;;;5051968;28;20037;-76
2022/01/20 10:07:01;;;;;;;14.95;2.70;;;5.00;99.90;;;;;;5016257;28;20091;-76
2022/01/20 10:09:27;;;;;;;;;;;;;;;;;;5032280;28;20553;-77
2022/01/20 10:11:53;;;;;;;11.23;2.22;;;;;;;;;;5021541;28;19916;-76
2022/01/20 10:14:19;;;;;;;17.48;2.85;;;;;;;;;;5051773;28;20060;-76
2022/01/20 10:16:45;;;;;;;8.57;1.58;;;;;;;;;;5052047;28;20045;-76
2022/01/20 10:19:22;;;;;;;11.43;2.38;;;;;;;;;;5050642;28;20131;-77
2022/01/20 10:21:48;;;;;;;10.43;1.60;;;;;;;;;;5051796;28;20132;-77
2022/01/20 10:24:14;;;;;;;14.02;1.55;;;;;;;;;;5051139;28;20187;-77
2022/01/20 10:26:40;;;;;;;15.98;3.00;;;;;;;;;;5051218;28;20592;-77
2022/01/20 10:29:09;;;;;;;6.93;1.92;;;4.20;99.90;;;;;;5051202;28;20120;-77
2022/01/20 10:31:52;;;;;;;14.40;2.72;;;4.20;99.90;;;;;;5051276;28;20112;-77
2022/01/20 10:34:30;;;;;;;12.23;2.78;;;;;;;;;;5033526;28;20041;-77
2022/01/20 10:36:59;;;;;;;9.73;2.00;;;4.50;99.90;;;;;;5014920;28;20136;-77
2022/01/20 10:39:37;;;;;;;14.88;2.92;;;4.60;99.90;;;;;;5014971;28;20507;-76
2022/01/20 10:42:06;;;;;;;15.65;2.30;;;4.80;99.90;;;;;;5014837;28;20076;-77
2022/01/20 10:44:51;;;;;;;15.88;2.25;;;;;;;;;;5031269;28;20491;-77
2022/01/20 10:47:18;;;;;;;17.30;3.85;;;;;;;;;;5015029;28;20399;-76
2022/01/20 10:49:45;;;;;;;15.43;3.17;;;;;;;;;;5031086;28;20042;-77
2022/01/20 10:52:13;;;;;;;16.30;2.83;;;4.50;99.90;;;;;;5031083;28;20037;-77
2022/01/20 10:54:39;;;;;;;11.27;2.28;;;;;;;;;;5031563;28;20041;-77
2022/01/20 10:57:05;;;;;;;10.88;1.90;;;;;;;;;;5015130;28;20037;-76
2022/01/20 10:59:33;;;;;;;7.13;1.67;;;3.30;99.90;;;;;;5030561;28;20041;-76
2022/01/20 11:02:08;;;;;;;6.30;1.23;;;3.30;99.90;;;;;;5031377;28;20507;-77
2022/01/20 11:04:37;;;;;;;8.93;1.38;;;3.70;99.90;;;;;;5030977;28;20084;-77
2022/01/20 11:07:07;;;;;;;6.80;1.67;;;;;;;;;;5031092;28;20502;-76
2022/01/20 11:09:37;;;;;;;9.93;2.33;;;4.00;99.90;;;;;;5030673;28;20048;-76
2022/01/20 11:12:04;;;;;;;14.52;1.88;;;;;;;;;;5093307;22;20048;-68
2022/01/20 11:14:31;;;;;;;11.75;2.30;;;;;;;;;;5073534;28;20043;-67
2022/01/20 11:16:58;;;;;;;15.88;2.75;;;4.50;99.90;;;;;;5090355;28;20574;-68
2022/01/20 11:19:24;;;;;;;13.82;2.20;;;;;;;;;;5089766;28;20135;-68
2022/01/20 11:21:50;;;;;;;16.58;2.50;;;;;;;;;;5090174;28;20497;-68
2022/01/20 11:24:22;;;;;;;13.77;2.83;;;5.00;99.90;;;;;;5090194;28;20126;-68
2022/01/20 11:26:55;;;;;;;17.25;2.92;;;;;;;;;;5090681;28;20080;-68
2022/01/20 11:29:25;;;;;;;16.95;2.67;;;;;;;;;;5082523;28;20437;-68
2022/01/20 11:31:52;;;;;;;12.20;2.50;;;;;;;;;;5069957;28;20455;-68
2022/01/20 11:34:20;;;;;;;13.27;3.10;;;;;;;;;;5069925;28;20082;-68
2022/01/20 11:36:46;;;;;;;14.25;4.03;;;;;;;;;;5064178;28;20110;-68
2022/01/20 11:39:13;;;;;;;20.23;3.65;;;;;;;;;;5059400;28;20040;-68
2022/01/20 11:41:40;;;;;;;14.05;2.72;;;4.50;99.90;;;;;;5060266;28;20450;-69
2022/01/20 11:44:26;;;;;;;20.90;3.97;;;;;;;;;;5041505;28;20133;-68
2022/01/20 11:46:53;;;;;;;15.45;3.45;;;;;;;;;;5060977;28;20094;-68
2022/01/20 11:49:20;;;;;;;18.77;3.38;;;;;;;;;;5069863;28;20424;-70
2022/01/20 11:51:51;;;;;;;14.43;2.78;;;;;;;;;;5066177;28;20446;-69
2022/01/20 11:54:29;;;;;;;14.57;4.07;;;;;;;;;;5037861;28;20033;-68
2022/01/20 11:57:06;;;;;;;21.80;2.47;;;;;;;;;;5049157;28;20060;-68
2022/01/20 11:59:39;;;;;;;10.98;2.55;;;;;;;;;;5066308;28;20486;-68
2022/01/20 12:02:05;;;;;;;;;;;5.60;99.90;;;;;;5066923;28;20055;-68
2022/01/20 12:04:32;;;;;;;11.23;2.15;;;;;;;;;;5067791;28;19924;-68
2022/01/20 12:06:58;;;;;;;15.43;2.90;;;;;;;;;;5067413;28;20177;-69
2022/01/20 12:09:33;;;;;;;16.70;3.97;;;;;;;;;;5080636;28;20052;-70
2022/01/20 12:11:59;;;;;;;19.50;2.80;;;;;;;;;;5055557;28;20041;-68
2022/01/20 12:14:36;;;;;;;11.15;2.10;;;5.60;99.90;;;;;;5054364;28;20041;-68
2022/01/20 12:17:07;;;;;;;11.50;2.60;;;;;;;;;;5046348;28;20095;-68
2022/01/20 12:19:33;;;;;;;11.18;2.50;;;5.40;99.90;;;;;;5057405;28;20609;-68
2022/01/20 12:21:59;;;;;;;10.95;2.60;;;;;;;;;;5067785;28;20520;-69
2022/01/20 12:24:28;;;;;;;10.63;2.42;;;;;;;;;;5069185;28;20037;-68
2022/01/20 12:26:54;;;;;;;11.10;3.10;;;;;;;;;;5056103;28;20076;-68
2022/01/20 12:29:20;;;;;;;10.82;2.42;;;;;;;;;;5055889;28;20165;-68
2022/01/20 12:31:49;;;;;;;17.42;3.25;;;4.80;99.90;;;;;;5052645;28;20036;-68
2022/01/20 12:34:15;;;;;;;15.20;2.83;;;4.80;99.90;;;;;;5069566;28;20040;-68
2022/01/20 12:36:41;;;;;;;17.05;3.10;;;;;;;;;;5069611;28;20067;-68
2022/01/20 12:39:07;;;;;;;14.13;3.13;;;;;;;;;;5070446;28;20127;-69
2022/01/20 12:41:33;;;;;;;16.20;2.95;;;4.80;99.90;;;;;;5070626;28;20040;-68
2022/01/20 12:44:06;;;;;;;21.90;3.30;;;4.80;99.90;;;;;;5073070;28;20044;-68
2022/01/20 12:46:39;;;;;;;7.80;2.47;;;5.00;99.90;;;;;;5073141;28;20028;-68
2022/01/20 12:49:05;;;;;;;9.25;2.20;;;;;;;;;;5072890;28;20047;-68
2022/01/20 12:51:40;;;;;;;13.13;2.53;;;;;;;;;;5074282;28;20483;-68
2022/01/20 12:54:13;;;;;;;14.52;3.08;;;;;;;;;;5072960;28;20049;-68
2022/01/20 12:56:39;;;;;;;;;;;;;;;;;;5073286;28;20047;-69
2022/01/20 12:59:06;;;;;;;17.88;2.25;;;;;;;;;;5072667;28;19916;-68
2022/01/20 13:01:40;;;;;;;21.10;3.33;;;;;;;;;;5069811;28;20040;-67
2022/01/20 13:04:08;;;;;;;;;;;;;;;;;;5064551;28;20143;-68
2022/01/20 13:06:34;;;;;;;8.65;2.10;;;;;;;;;;5072475;28;19931;-68
2022/01/20 13:09:06;;;;;;;15.27;2.35;;;;;;;;;;5072180;28;20041;-69
2022/01/20 13:11:37;;;;;;;13.93;3.15;;;5.10;99.90;;;;;;5072553;28;20114;-68
2022/01/20 13:14:03;;;;;;;13.05;2.83;;;5.40;99.90;;;;;;5071906;28;20048;-68
2022/01/20 13:16:31;;;;;;;15.25;2.20;;;;;;;;;;5071887;28;20040;-68
2022/01/20 13:18:59;;;;;;;10.63;2.50;;;5.50;99.90;;;;;;5068622;28;20088;-68
2022/01/20 13:21:45;;;;;;;17.73;3.22;;;5.50;99.90;;;;;;5066022;28;20082;-69
2022/01/20 13:24:14;;;;;;;13.20;2.70;;;;;;;;;;5058448;28;20194;-70
2022/01/20 13:26:47;;;;;;;14.05;3.30;;;;;;;;;;5051653;28;20609;-68
2022/01/20 13:29:13;;;;;;;;;;;;;;;;;;5055822;28;20041;-68
2022/01/20 13:31:39;;;;;;;9.60;1.45;;;;;;;;;;5072045;28;20310;-68
2022/01/20 13:34:09;;;;;;;13.70;1.70;;;;;;;;;;5055569;28;20136;-68
2022/01/20 13:36:36;;;;;;;8.10;1.95;;;;;;;;;;5043769;28;20068;-68
2022/01/20 13:39:03;;;;;;;5.70;1.60;;;;;;;;;;5052909;28;20154;-68
2022/01/20 13:41:29;;;;;;;13.32;1.67;;;4.20;99.90;;;;;;5052192;28;20051;-68
2022/01/20 13:46:43;;;;;;;7.90;1.50;;;4.40;99.90;;;;;;5052040;28;20055;-68
2022/01/20 13:49:09;;;;;;;7.50;1.63;;;;;;;;;;5051363;28;20119;-68
2022/01/20 13:51:35;;;;;;;13.48;3.15;;;;;;;;;;5069515;28;20506;-69
2022/01/20 13:54:01;;;;;;;14.85;2.10;;;;;;;;;;5055838;28;20075;-68
2022/01/20 13:56:28;;;;;;;10.30;1.80;;;;;;;;;;5053079;28;20047;-68
2022/01/20 13:59:02;;;;;;;6.43;1.58;;;;;;;;;;5051612;28;20124;-68
2022/01/20 14:01:28;;;;;;;14.68;2.70;;;;;;;;;;5068250;28;20409;-68
2022/01/20 14:03:54;;;;;;;8.38;1.17;;;;;;;;;;5071531;28;20044;-68
2022/01/20 14:06:20;;;;;;;6.40;0.85;;;;;;;;;;5072929;28;20546;-69
2022/01/20 14:08:48;;;;;;;3.85;1.55;;;;;;;;;;5071391;28;20415;-68
2022/01/20 14:11:14;;;;;;;4.72;1.50;;;;;;;;;;5071800;28;20055;-68
2022/01/20 14:13:40;;;;;;;7.88;1.00;;;;;;;;;;5066355;28;20406;-68
2022/01/20 14:16:06;;;;;;;6.90;2.42;;;;;;;;;;5071142;28;20040;-68
2022/01/20 14:18:41;;;;;;;4.78;1.10;;;;;;;;;;5071236;28;20410;-68
2022/01/20 14:21:08;;;;;;;7.50;1.30;;;3.80;99.90;;;;;;5070868;28;20044;-68
2022/01/20 14:23:34;;;;;;;4.70;1.40;;;;;;;;;;5071580;28;20246;-68
2022/01/20 14:26:01;;;;;;;11.50;2.00;;;;;;;;;;5070959;28;20486;-67
2022/01/20 14:28:27;;;;;;;9.10;2.28;;;;;;;;;;5066595;28;20047;-68
2022/01/20 14:30:53;;;;;;;11.23;2.25;;;;;;;;;;5071563;28;20401;-68
2022/01/20 14:33:19;;;;;;;15.88;3.78;;;;;;;;;;5070980;28;20119;-68
2022/01/20 14:35:45;;;;;;;27.58;5.55;;;;;;;;;;5070583;28;20044;-68
2022/01/20 14:38:11;;;;;;;26.80;8.50;;;;;;;;;;5072467;28;20082;-67
2022/01/20 14:40:39;;;;;;;13.52;3.33;;;;;;;;;;5071329;28;20048;-68
2022/01/20 14:43:05;;;;;;;12.35;2.00;;;;;;;;;;5070226;28;20387;-68
2022/01/20 14:45:30;;;;;;;18.10;2.60;;;;;;;;;;5070639;28;20051;-68
2022/01/20 14:47:56;;;;;;;13.93;3.05;;;;;;;;;;5064373;28;20033;-69
2022/01/20 14:50:24;;;;;;;18.52;3.33;;;;;;;;;;5061615;28;20032;-68
2022/01/20 14:52:50;;;;;;;13.90;2.60;;;;;;;;;;5072003;28;20037;-68
2022/01/20 14:55:17;;;;;;;10.75;2.50;;;;;;;;;;5070577;28;20044;-68
2022/01/20 14:57:42;;;;;;;11.07;2.33;;;4.30;99.90;;;;;;5071762;28;20036;-68
2022/01/20 15:00:10;;;;;;;10.95;2.58;;;;;;;;;;5069798;28;20047;-69
2022/01/20 15:02:36;;;;;;;20.17;5.20;;;4.40;99.90;;;;;;5071808;28;20501;-68
2022/01/20 15:05:02;;;;;;;18.63;4.40;;;;;;;;;;5069695;28;20134;-69
2022/01/20 15:07:28;;;;;;;12.40;2.72;;;;;;;;;;5070372;28;20036;-69
2022/01/20 15:09:53;;;;;;;11.43;3.00;;;;;;;;;;5070010;28;20128;-68